Syracuse Hancock International Airport
KSYR : now visible

Aeroporto :











RITROVATECI SU...

 
LOGIN :

Iscrizione | Disclaimer

   EN    FR    IT 

 









Sommario :    VFR   VFR Marginale   IFR   IFR Intensivo   IFR Molto Intensivo
Visibilità : 
Base nubi : 
>= 8 km
>= 3000ft
5 / 8 km
1000 / 3000 ft
1500m / 5 km
500 / 1000 ft
800 / 1500m
200 / 500 ft
< 800m
< 200 ft
Simboli :   Temporali  Nebbia  Neve Forte  Precipitazioni Forti  Vento > 20 kt






- Altitudine del aeroporto : 421 ft
- Codice IATA : SYR


KSYR - Syracuse Hancock International

ULTIMO METAR :
  • 051254Z 25014G22KT 10SM SCT022 SCT033 BKN110 21/15 A3001 RMK AO2 SLP155 T02110150

METARs OBSOLETI :
  • 051154Z 25016G20KT 10SM SCT025 SCT065 BKN120 21/16 A2998 RMK AO2 SLP146 MOD CU NW-N 60000 70119 T02060156 10211 20194 52028
  • 051054Z 24012KT 10SM FEW030 FEW065 SCT120 20/16 A2995 RMK AO2 SLP137 MOD CU N T02000156

TAF KSYR
Valido dal 05 a 13 ore il 06 a 12 ore UTC


051259Z 0513/0612 25010G23KT P6SM FEW040 SCT100
FM051600 27010KT P6SM SCT040
FM060000 24004KT P6SM FEW050
FIR KZBW / America del Nord



MetMap, La meteo Aeronautica in un colpo d'occhio ! - Copyright ORBIFLY Dicembre 2007 - Disclaimer

ORBIFLY MET'MAP TEAM :

Programmazione e sviluppo : Alexandra Zaïnal
Concezione : Baudouin d'Aumeries
Aiuto per la programmazione : Marc-Olivier Méhu
Supporto tecnico e logistico : Manuel Goepfert
Aiuto per la traduzione : Arnaldo La Scala

Contatto : metmap@orbifly.com




FONTI E CREDITI :

   NOAA       Earth
Advisory